TimeCDT,TemperatureF,Dew PointF,Humidity,Sea Level PressureIn,VisibilityMPH,Wind Direction,Wind SpeedMPH,Gust SpeedMPH,PrecipitationIn,Events,Conditions,WindDirDegrees,DateUTC
12:44 AM,82.4,77.0,84,30.00,7.0,East,10.4,-,N/A,,Mostly Cloudy,100,2013-08-25 05:44:00
1:45 AM,82.4,77.0,84,30.00,7.0,ESE,11.5,-,N/A,,Mostly Cloudy,120,2013-08-25 06:45:00
2:40 AM,80.6,77.0,89,30.00,7.0,ESE,10.4,-,N/A,,Mostly Cloudy,120,2013-08-25 07:40:00
3:41 AM,82.4,77.0,84,29.99,7.0,ESE,6.9,-,N/A,,Mostly Cloudy,110,2013-08-25 08:41:00
4:41 AM,80.6,77.0,89,29.99,7.0,SE,4.6,-,N/A,,Scattered Clouds,130,2013-08-25 09:41:00
5:42 AM,80.6,77.0,89,30.00,7.0,ESE,9.2,-,N/A,,Scattered Clouds,120,2013-08-25 10:42:00
6:44 AM,80.6,75.2,84,30.00,7.0,ESE,8.1,-,N/A,,Scattered Clouds,110,2013-08-25 11:44:00
7:41 AM,82.4,75.2,79,30.02,7.0,ESE,10.4,-,N/A,,Scattered Clouds,120,2013-08-25 12:41:00
8:41 AM,84.2,77.0,79,30.00,7.0,ESE,17.3,-,N/A,,Mostly Cloudy,120,2013-08-25 13:41:00
9:40 AM,86.0,77.0,74,30.03,7.0,ESE,15.0,-,N/A,,Mostly Cloudy,120,2013-08-25 14:40:00
10:40 AM,87.8,77.0,70,30.04,7.0,ESE,16.1,-,N/A,,Mostly Cloudy,120,2013-08-25 15:40:00
11:41 AM,87.8,77.0,70,30.03,6.0,ESE,18.4,-,N/A,,Mostly Cloudy,120,2013-08-25 16:41:00
12:42 PM,87.8,77.0,70,30.02,6.0,ESE,11.5,-,N/A,,Mostly Cloudy,120,2013-08-25 17:42:00
1:40 PM,87.8,77.0,70,30.01,6.0,SE,16.1,-,N/A,,Mostly Cloudy,140,2013-08-25 18:40:00
2:45 PM,87.8,77.0,70,30.00,6.0,ESE,13.8,-,N/A,,Mostly Cloudy,120,2013-08-25 19:45:00
3:44 PM,86.0,77.0,74,29.99,6.0,ESE,12.7,-,N/A,,Mostly Cloudy,110,2013-08-25 20:44:00
4:42 PM,86.0,77.0,74,29.99,6.0,ESE,10.4,-,N/A,,Mostly Cloudy,110,2013-08-25 21:42:00
5:40 PM,86.0,77.0,74,29.99,6.0,ESE,9.2,-,N/A,,Mostly Cloudy,110,2013-08-25 22:40:00
6:48 PM,84.2,78.8,84,30.00,6.0,East,3.5,-,N/A,,Mostly Cloudy,100,2013-08-25 23:48:00
7:44 PM,82.4,77.0,84,30.01,6.0,East,4.6,-,N/A,,Mostly Cloudy,100,2013-08-26 00:44:00
8:41 PM,82.4,78.8,89,30.04,6.0,East,5.8,-,N/A,,Mostly Cloudy,90,2013-08-26 01:41:00
9:41 PM,77.0,75.2,94,30.05,6.0,NE,3.5,-,N/A,,Mostly Cloudy,40,2013-08-26 02:41:00
10:45 PM,77.0,71.6,83,30.07,5.0,SSE,5.8,-,N/A,,Mostly Cloudy,150,2013-08-26 03:45:00
11:44 PM,77.0,75.2,94,30.06,6.0,Calm,Calm,-,N/A,,Mostly Cloudy,0,2013-08-26 04:44:00